createdAt,value
2023-04-28T00:01:24.351Z,74.47
2023-04-28T00:03:53.958Z,74.00
2023-04-28T00:06:22.218Z,74.51
2023-04-28T00:08:51.120Z,74.58
2023-04-28T00:11:19.098Z,73.83
2023-04-28T00:13:47.024Z,74.24
2023-04-28T00:16:16.027Z,74.90
2023-04-28T00:18:45.397Z,73.86
2023-04-28T00:21:14.298Z,73.67
2023-04-28T00:23:42.232Z,73.21
2023-04-28T00:26:12.318Z,72.89
2023-04-28T00:28:43.686Z,74.81
2023-04-28T00:31:13.372Z,73.72
2023-04-28T00:33:42.567Z,74.85
2023-04-28T00:36:12.750Z,73.42
2023-04-28T00:38:41.156Z,73.86
2023-04-28T00:41:11.926Z,74.20
2023-04-28T00:43:47.572Z,74.22
2023-04-28T00:46:23.402Z,74.61
2023-04-28T00:48:51.979Z,74.95
2023-04-28T00:51:21.345Z,74.74
2023-04-28T00:53:50.285Z,74.45
2023-04-28T00:56:18.545Z,74.88
2023-04-28T00:58:47.088Z,74.64
2023-04-28T01:01:18.054Z,75.52
2023-04-28T01:03:46.521Z,75.76
2023-04-28T01:06:16.587Z,76.00
2023-04-28T01:08:49.767Z,75.87
2023-04-28T01:11:19.608Z,75.94
2023-04-28T01:14:16.936Z,75.92
2023-04-28T01:16:46.539Z,76.23
2023-04-28T01:19:22.789Z,76.24
2023-04-28T01:21:52.826Z,76.03
2023-04-28T01:24:24.784Z,76.83
2023-04-28T01:26:53.760Z,76.39
2023-04-28T01:29:23.844Z,77.39
2023-04-28T01:31:53.673Z,78.09
2023-04-28T01:34:23.973Z,78.67
2023-04-28T01:36:51.961Z,77.85
2023-04-28T01:39:20.809Z,78.48
2023-04-28T01:41:50.184Z,77.41
2023-04-28T01:44:18.967Z,77.74
2023-04-28T01:46:50.277Z,78.16
2023-04-28T01:49:18.297Z,78.96
2023-04-28T01:51:46.808Z,77.37
2023-04-28T01:54:15.509Z,77.77
2023-04-28T01:56:44.599Z,77.90
2023-04-28T01:59:17.063Z,79.06
2023-04-28T02:01:46.433Z,79.15
2023-04-28T02:04:14.720Z,78.50
2023-04-28T02:06:43.293Z,78.23
2023-04-28T02:09:14.534Z,78.27
2023-04-28T02:11:42.578Z,78.01
2023-04-28T02:14:10.747Z,78.31
2023-04-28T02:16:43.665Z,77.88
2023-04-28T02:19:12.698Z,77.39
2023-04-28T02:21:41.122Z,76.78
2023-04-28T02:24:09.886Z,75.86
2023-04-28T02:26:37.853Z,76.91
2023-04-28T02:29:05.986Z,76.69
2023-04-28T02:31:35.075Z,75.95
2023-04-28T02:34:04.623Z,76.48
2023-04-28T02:36:33.776Z,76.05
2023-04-28T02:39:02.229Z,75.69
2023-04-28T02:41:31.203Z,75.86
2023-04-28T02:44:00.168Z,75.97
2023-04-28T02:46:28.951Z,76.24
2023-04-28T02:48:56.962Z,76.81
2023-04-28T02:51:27.244Z,75.62
2023-04-28T02:53:55.539Z,76.24
2023-04-28T02:56:24.926Z,77.25
2023-04-28T02:58:54.217Z,77.00
2023-04-28T03:01:22.267Z,77.21
2023-04-28T03:03:51.408Z,78.22
2023-04-28T03:06:19.532Z,78.10
2023-04-28T03:08:49.358Z,77.83
2023-04-28T03:11:18.264Z,77.37
2023-04-28T03:13:46.205Z,77.17
2023-04-28T03:16:14.624Z,76.95
2023-04-28T03:18:43.003Z,76.63
2023-04-28T03:21:11.049Z,76.03
2023-04-28T03:23:38.922Z,76.62
2023-04-28T03:26:09.380Z,77.08
2023-04-28T03:28:37.414Z,77.32
2023-04-28T03:31:06.005Z,77.65
2023-04-28T03:33:34.946Z,76.61
2023-04-28T03:36:03.330Z,78.56
2023-04-28T03:38:32.972Z,78.77
2023-04-28T03:41:01.204Z,78.50
2023-04-28T03:43:30.515Z,77.97
2023-04-28T03:46:18.147Z,77.66
2023-04-28T03:48:46.663Z,77.66
2023-04-28T03:51:14.833Z,77.65
2023-04-28T03:53:43.719Z,78.77
2023-04-28T03:56:11.752Z,78.56
2023-04-28T03:58:42.921Z,79.12
2023-04-28T04:01:11.008Z,79.47
2023-04-28T04:03:39.816Z,79.11
2023-04-28T04:06:09.153Z,79.15
2023-04-28T04:08:37.731Z,78.58
2023-04-28T04:11:07.460Z,79.49
2023-04-28T04:13:36.225Z,79.84
2023-04-28T04:16:10.396Z,79.74
2023-04-28T04:18:38.572Z,80.40
2023-04-28T04:21:20.168Z,79.86
2023-04-28T04:23:50.539Z,79.00
2023-04-28T04:26:19.010Z,79.47
2023-04-28T04:28:50.086Z,78.93
2023-04-28T04:31:19.684Z,79.68
2023-04-28T04:33:48.753Z,78.19
2023-04-28T04:36:18.826Z,78.81
2023-04-28T04:38:46.888Z,79.16
2023-04-28T04:41:21.130Z,79.57
2023-04-28T04:43:51.230Z,80.51
2023-04-28T04:46:22.231Z,80.28
2023-04-28T04:48:50.428Z,81.29
2023-04-28T04:51:18.473Z,82.56
2023-04-28T04:53:47.474Z,82.11
2023-04-28T04:56:16.352Z,82.42
2023-04-28T04:58:45.529Z,82.47
2023-04-28T05:01:36.825Z,82.71
2023-04-28T05:04:05.240Z,83.25
2023-04-28T05:06:33.720Z,83.60
2023-04-28T05:09:02.741Z,83.51
2023-04-28T05:11:33.641Z,83.85
2023-04-28T05:14:02.701Z,83.21
2023-04-28T05:16:31.438Z,82.72
2023-04-28T05:19:14.295Z,83.20
2023-04-28T05:21:42.747Z,81.80
2023-04-28T05:24:11.240Z,81.93
2023-04-28T05:26:39.556Z,81.00
2023-04-28T05:29:10.510Z,81.05
2023-04-28T05:31:39.542Z,80.54
2023-04-28T05:34:07.590Z,80.03
2023-04-28T05:36:37.365Z,80.44
2023-04-28T05:39:09.533Z,79.85
2023-04-28T05:41:39.356Z,80.02
2023-04-28T05:44:07.854Z,78.51
2023-04-28T05:46:36.593Z,78.62
2023-04-28T05:49:04.862Z,78.77
2023-04-28T05:51:39.296Z,79.63
2023-04-28T05:54:07.337Z,78.74
2023-04-28T05:56:42.635Z,78.55
2023-04-28T05:59:10.764Z,78.80
2023-04-28T06:01:38.938Z,78.28
2023-04-28T06:04:08.417Z,78.51
2023-04-28T06:06:38.998Z,78.32
2023-04-28T06:09:08.333Z,78.32
2023-04-28T06:11:36.364Z,79.29
2023-04-28T06:14:05.219Z,79.37
2023-04-28T06:16:33.804Z,81.37
2023-04-28T06:19:02.403Z,80.58
2023-04-28T06:21:32.319Z,81.01
2023-04-28T06:24:02.742Z,80.71
2023-04-28T06:26:31.516Z,80.96
2023-04-28T06:28:59.407Z,80.43
2023-04-28T06:31:28.290Z,80.67
2023-04-28T06:33:56.302Z,80.98
2023-04-28T06:36:24.688Z,80.38
2023-04-28T06:38:53.644Z,80.83
2023-04-28T06:41:23.089Z,79.77
2023-04-28T06:43:53.214Z,78.95
2023-04-28T06:46:32.328Z,78.14
2023-04-28T06:49:00.878Z,78.68
2023-04-28T06:51:28.951Z,78.34
2023-04-28T06:53:57.799Z,77.70
2023-04-28T06:56:27.348Z,78.32
2023-04-28T06:58:59.453Z,77.58
2023-04-28T07:01:27.728Z,79.36
2023-04-28T07:03:55.882Z,78.23
2023-04-28T07:06:25.011Z,77.43
2023-04-28T07:08:53.103Z,78.30
2023-04-28T07:11:21.565Z,76.53
2023-04-28T07:13:52.160Z,75.76
2023-04-28T07:16:21.466Z,76.19
2023-04-28T07:18:50.062Z,76.44
2023-04-28T07:21:18.586Z,76.19
2023-04-28T07:23:46.728Z,77.02
2023-04-28T07:26:16.382Z,77.11
2023-04-28T07:28:46.274Z,76.66
2023-04-28T07:31:16.339Z,77.04
2023-04-28T07:33:44.759Z,77.58
2023-04-28T07:36:13.624Z,76.20
2023-04-28T07:38:41.579Z,76.71
2023-04-28T07:41:11.295Z,77.42
2023-04-28T07:43:41.408Z,78.76
2023-04-28T07:46:09.992Z,78.05
2023-04-28T07:48:40.132Z,78.14
2023-04-28T07:51:08.513Z,78.78
2023-04-28T07:53:37.229Z,77.82
2023-04-28T07:56:05.716Z,78.61
2023-04-28T07:58:34.744Z,78.57
2023-04-28T08:01:02.687Z,79.29
2023-04-28T08:03:31.311Z,79.70
2023-04-28T08:06:02.287Z,79.19
2023-04-28T08:08:31.205Z,78.21
2023-04-28T08:10:59.262Z,78.41
2023-04-28T08:13:29.526Z,78.58
2023-04-28T08:16:00.658Z,78.18
2023-04-28T08:18:29.285Z,77.06
2023-04-28T08:20:58.276Z,76.95
2023-04-28T08:23:30.636Z,75.83
2023-04-28T08:25:59.637Z,76.27
2023-04-28T08:28:28.800Z,75.38
2023-04-28T08:30:57.912Z,75.76
2023-04-28T08:33:26.373Z,75.91
2023-04-28T08:35:55.051Z,75.15
2023-04-28T08:38:25.140Z,74.97
2023-04-28T08:40:55.402Z,75.68
2023-04-28T08:43:24.354Z,74.62
2023-04-28T08:45:53.025Z,74.38
2023-04-28T08:48:22.868Z,74.77
2023-04-28T08:50:54.156Z,75.98
2023-04-28T08:53:25.576Z,74.48
2023-04-28T08:55:58.048Z,75.16
2023-04-28T08:58:27.217Z,75.79
2023-04-28T09:00:55.698Z,75.73
2023-04-28T09:03:24.545Z,77.10
2023-04-28T09:05:53.060Z,77.65
2023-04-28T09:08:21.045Z,77.43
2023-04-28T09:10:49.134Z,77.97
2023-04-28T09:13:27.885Z,77.99
2023-04-28T09:16:01.806Z,78.63
2023-04-28T09:18:33.141Z,78.45
2023-04-28T09:21:05.986Z,79.69
2023-04-28T09:23:35.462Z,80.22
2023-04-28T09:26:04.895Z,80.63
2023-04-28T09:28:35.449Z,81.36
2023-04-28T09:31:04.249Z,81.31
2023-04-28T09:33:32.739Z,81.65
2023-04-28T09:36:01.800Z,82.06
2023-04-28T09:38:30.839Z,82.58
2023-04-28T09:41:00.752Z,85.24
2023-04-28T09:43:30.591Z,86.05
2023-04-28T09:46:01.959Z,88.59
2023-04-28T09:48:34.588Z,88.81
2023-04-28T09:51:06.377Z,89.00
2023-04-28T09:53:36.128Z,90.21
2023-04-28T09:56:05.809Z,89.45
2023-04-28T09:58:40.374Z,90.36
2023-04-28T10:01:13.338Z,90.46
2023-04-28T10:03:43.644Z,90.81
2023-04-28T10:06:12.092Z,91.30
2023-04-28T10:08:41.044Z,89.95
2023-04-28T10:11:10.050Z,90.00
2023-04-28T10:13:38.434Z,89.95
2023-04-28T10:16:10.435Z,89.97
2023-04-28T10:18:39.049Z,89.29
2023-04-28T10:21:11.061Z,89.08
2023-04-28T10:24:04.918Z,86.01
2023-04-28T10:27:00.048Z,88.05
2023-04-28T10:29:29.408Z,87.06
2023-04-28T10:32:23.982Z,86.65
2023-04-28T10:34:53.126Z,84.43
2023-04-28T10:37:22.219Z,84.32
2023-04-28T10:40:32.607Z,82.69
2023-04-28T10:43:01.662Z,84.55
2023-04-28T10:46:01.486Z,85.21
2023-04-28T10:48:56.778Z,87.17
2023-04-28T10:51:34.628Z,86.86
2023-04-28T10:54:20.181Z,87.87
2023-04-28T10:57:24.998Z,87.91
2023-04-28T10:59:54.675Z,88.02
2023-04-28T11:02:47.100Z,86.58
2023-04-28T11:05:20.565Z,87.24
2023-04-28T11:08:34.413Z,86.87
2023-04-28T11:11:14.573Z,86.40
2023-04-28T11:13:43.230Z,86.21
2023-04-28T11:16:11.288Z,86.67
2023-04-28T11:18:57.326Z,86.46
2023-04-28T11:21:28.335Z,85.65
2023-04-28T11:23:59.136Z,86.86
2023-04-28T11:26:29.436Z,86.88
2023-04-28T11:28:59.985Z,85.01
2023-04-28T11:31:28.819Z,84.49
2023-04-28T11:34:01.902Z,82.75
2023-04-28T11:36:35.482Z,80.75
2023-04-28T11:39:08.299Z,80.53
2023-04-28T11:41:36.957Z,81.12
2023-04-28T11:44:12.302Z,79.14
2023-04-28T11:46:51.035Z,77.68
2023-04-28T11:49:21.768Z,76.23
2023-04-28T11:51:51.973Z,75.92
2023-04-28T11:54:25.435Z,78.07
2023-04-28T11:56:54.785Z,78.68
2023-04-28T11:59:27.006Z,78.08
2023-04-28T12:01:57.637Z,79.10
2023-04-28T12:04:32.981Z,80.13
2023-04-28T12:07:05.552Z,77.37
2023-04-28T12:09:34.969Z,76.58
2023-04-28T12:12:05.143Z,77.07
2023-04-28T12:14:36.137Z,76.21
2023-04-28T12:17:04.185Z,77.04
2023-04-28T12:19:44.478Z,76.24
2023-04-28T12:22:17.627Z,76.21
2023-04-28T12:24:47.096Z,75.13
2023-04-28T12:27:23.120Z,75.67
2023-04-28T12:29:52.474Z,75.13
2023-04-28T12:32:21.101Z,75.79
2023-04-28T12:34:51.400Z,74.23
2023-04-28T12:37:23.035Z,74.43
2023-04-28T12:39:51.046Z,73.86
2023-04-28T12:42:19.046Z,75.09
2023-04-28T12:44:47.978Z,76.38
2023-04-28T12:47:18.161Z,76.75
2023-04-28T12:49:47.339Z,76.64
2023-04-28T12:52:15.329Z,77.84
2023-04-28T12:54:47.616Z,78.36
2023-04-28T12:57:16.249Z,77.45
2023-04-28T12:59:44.815Z,70.81
2023-04-28T13:02:15.807Z,67.04
2023-04-28T13:04:46.084Z,68.81
2023-04-28T13:07:15.595Z,67.56
2023-04-28T13:09:45.226Z,68.80
2023-04-28T13:12:13.878Z,74.90
2023-04-28T13:14:42.794Z,74.29
2023-04-28T13:17:12.446Z,76.11
2023-04-28T13:19:41.078Z,77.25
2023-04-28T13:22:09.927Z,77.27
2023-04-28T13:24:38.969Z,76.31
2023-04-28T13:27:10.567Z,77.68
2023-04-28T13:29:38.779Z,79.55
2023-04-28T13:32:07.722Z,80.50
2023-04-28T13:34:38.514Z,79.91
2023-04-28T13:37:07.034Z,80.12
2023-04-28T13:39:35.413Z,81.19
2023-04-28T13:42:03.867Z,80.17
2023-04-28T13:44:33.666Z,79.83
2023-04-28T13:47:01.517Z,78.83
2023-04-28T13:49:29.499Z,80.27
2023-04-28T13:51:58.570Z,81.20
2023-04-28T13:54:26.759Z,81.87
2023-04-28T13:56:55.748Z,81.62
2023-04-28T13:59:25.592Z,83.14
2023-04-28T14:01:55.913Z,83.52
2023-04-28T14:04:24.108Z,83.20
2023-04-28T14:06:53.609Z,83.19
2023-04-28T14:09:22.033Z,83.73
2023-04-28T14:11:51.166Z,83.25
2023-04-28T14:14:19.622Z,83.20
2023-04-28T14:16:48.914Z,83.49
2023-04-28T14:19:19.319Z,83.13
2023-04-28T14:21:48.240Z,84.35
2023-04-28T14:24:16.356Z,84.42
2023-04-28T14:26:45.707Z,84.75
2023-04-28T14:29:14.148Z,83.95
2023-04-28T14:31:42.369Z,85.56
2023-04-28T14:34:11.386Z,85.48
2023-04-28T14:36:42.280Z,86.59
2023-04-28T14:39:11.266Z,85.90
2023-04-28T14:41:39.258Z,86.20
2023-04-28T14:44:08.272Z,87.13
2023-04-28T14:46:38.182Z,86.91
2023-04-28T14:49:06.719Z,88.25
2023-04-28T14:51:35.142Z,89.83
2023-04-28T14:54:05.641Z,90.04
2023-04-28T14:56:33.961Z,89.71
2023-04-28T14:59:01.963Z,90.02
2023-04-28T15:01:32.058Z,90.16
2023-04-28T15:04:00.183Z,91.08
2023-04-28T15:06:28.761Z,91.27
2023-04-28T15:08:57.221Z,91.61
2023-04-28T15:11:27.052Z,91.56
2023-04-28T15:13:55.478Z,92.04
2023-04-28T15:16:24.022Z,93.01
2023-04-28T15:18:52.018Z,93.67
2023-04-28T15:21:20.368Z,94.36
2023-04-28T15:23:48.319Z,95.03
2023-04-28T15:26:16.836Z,95.18
2023-04-28T15:28:46.151Z,94.86
2023-04-28T15:31:14.231Z,94.56
2023-04-28T15:33:43.087Z,90.49
2023-04-28T15:36:11.700Z,87.03
2023-04-28T15:38:39.867Z,88.65
2023-04-28T15:41:08.248Z,90.67
2023-04-28T15:43:37.901Z,90.82
2023-04-28T15:46:09.364Z,91.62
2023-04-28T15:48:38.734Z,90.42
2023-04-28T15:51:07.137Z,91.34
2023-04-28T15:53:35.534Z,90.70
2023-04-28T15:56:04.978Z,90.28
2023-04-28T15:58:33.179Z,92.59
2023-04-28T16:01:01.210Z,92.70
2023-04-28T16:03:31.776Z,93.83
2023-04-28T16:06:01.089Z,94.35
2023-04-28T16:08:29.554Z,95.36
2023-04-28T16:10:57.878Z,95.58
2023-04-28T16:13:27.495Z,96.49
2023-04-28T16:15:55.611Z,95.95
2023-04-28T16:18:24.226Z,95.03
2023-04-28T16:20:54.032Z,95.64
2023-04-28T16:23:22.415Z,95.36
2023-04-28T16:25:51.574Z,94.76
2023-04-28T16:28:20.611Z,94.59
2023-04-28T16:30:49.993Z,94.41
2023-04-28T16:33:18.202Z,94.44
2023-04-28T16:35:46.723Z,95.50
2023-04-28T16:38:17.427Z,96.11
2023-04-28T16:40:45.385Z,95.78
2023-04-28T16:43:14.933Z,96.06
2023-04-28T16:45:43.626Z,96.85
2023-04-28T16:48:12.132Z,97.29
2023-04-28T16:50:41.489Z,96.83
2023-04-28T16:53:09.570Z,97.12
2023-04-28T16:55:39.328Z,95.62
2023-04-28T16:58:07.980Z,95.45
2023-04-28T17:00:36.045Z,95.12
2023-04-28T17:03:05.134Z,95.02
2023-04-28T17:05:33.428Z,93.79
2023-04-28T17:08:03.015Z,95.74
2023-04-28T17:10:31.160Z,95.57
2023-04-28T17:13:01.350Z,96.40
2023-04-28T17:15:29.833Z,95.73
2023-04-28T17:17:57.979Z,95.18
2023-04-28T17:20:26.439Z,95.08
2023-04-28T17:22:54.730Z,94.75
2023-04-28T17:25:23.941Z,94.32
2023-04-28T17:27:54.341Z,93.87
2023-04-28T17:30:25.923Z,93.78
2023-04-28T17:32:55.823Z,94.08
2023-04-28T17:35:23.981Z,93.69
2023-04-28T17:37:52.379Z,93.30
2023-04-28T17:40:24.618Z,93.43
2023-04-28T17:42:52.867Z,93.11
2023-04-28T17:45:20.814Z,92.91
2023-04-28T17:47:51.144Z,93.44
2023-04-28T17:50:18.994Z,94.50
2023-04-28T17:52:47.133Z,94.87
2023-04-28T17:55:16.196Z,95.32
2023-04-28T17:57:44.151Z,95.41
2023-04-28T18:00:14.645Z,94.95
2023-04-28T18:02:42.896Z,95.52
2023-04-28T18:05:12.370Z,96.33
2023-04-28T18:07:41.345Z,95.89
2023-04-28T18:10:09.702Z,96.25
2023-04-28T18:12:38.083Z,96.34
2023-04-28T18:15:08.533Z,96.32
2023-04-28T18:17:36.795Z,96.44
2023-04-28T18:20:09.748Z,97.30
2023-04-28T18:22:39.675Z,99.18
2023-04-28T18:25:08.260Z,99.99
2023-04-28T18:27:36.319Z,99.99
2023-04-28T18:30:05.085Z,99.99
2023-04-28T18:32:34.444Z,99.99
2023-04-28T18:35:02.441Z,99.99
2023-04-28T18:37:31.156Z,99.99
2023-04-28T18:40:01.632Z,99.99
2023-04-28T18:42:32.277Z,99.99
2023-04-28T18:45:00.679Z,99.99
2023-04-28T18:47:28.803Z,99.99
2023-04-28T18:49:57.811Z,99.99
2023-04-28T18:52:25.953Z,99.99
2023-04-28T18:54:54.061Z,99.99
2023-04-28T18:57:25.944Z,99.99
2023-04-28T18:59:53.689Z,99.99
2023-04-28T19:02:23.018Z,99.99
2023-04-28T19:04:51.912Z,99.99
2023-04-28T19:07:19.897Z,99.99
2023-04-28T19:09:49.002Z,99.99
2023-04-28T19:12:17.802Z,99.99
2023-04-28T19:14:48.180Z,99.99
2023-04-28T19:17:15.940Z,99.99
2023-04-28T19:19:44.372Z,99.99
2023-04-28T19:22:31.854Z,99.99
2023-04-28T19:25:00.290Z,99.99
2023-04-28T19:27:32.627Z,99.99
2023-04-28T19:30:02.703Z,99.99
2023-04-28T19:32:31.471Z,99.99
2023-04-28T19:34:59.863Z,99.99
2023-04-28T19:37:27.983Z,99.99
2023-04-28T19:39:56.137Z,99.99
2023-04-28T19:42:25.108Z,99.99
2023-04-28T19:44:55.550Z,99.99
2023-04-28T19:47:26.161Z,99.99
2023-04-28T19:49:54.618Z,99.99
2023-04-28T19:52:23.489Z,99.99
2023-04-28T19:54:53.750Z,99.99
2023-04-28T19:57:21.962Z,99.99
2023-04-28T19:59:51.231Z,99.99
2023-04-28T20:02:21.565Z,99.99
2023-04-28T20:04:51.210Z,99.99
2023-04-28T20:07:19.631Z,99.99
2023-04-28T20:09:48.664Z,99.99
2023-04-28T20:12:16.752Z,99.99
2023-04-28T20:14:45.845Z,99.99
2023-04-28T20:17:14.079Z,99.99
2023-04-28T20:19:42.648Z,99.99
2023-04-28T20:22:12.521Z,99.99
2023-04-28T20:24:40.380Z,99.99
2023-04-28T20:27:08.311Z,99.99
2023-04-28T20:29:37.641Z,99.99
2023-04-28T20:32:06.349Z,99.99
2023-04-28T20:34:35.645Z,99.99
2023-04-28T20:37:06.338Z,99.99
2023-04-28T20:39:36.856Z,99.99
2023-04-28T20:42:04.811Z,99.99
2023-04-28T20:44:34.500Z,99.99
2023-04-28T20:47:03.042Z,99.99
2023-04-28T20:49:31.344Z,99.99
2023-04-28T20:52:04.308Z,99.99
2023-04-28T20:54:33.610Z,99.99
2023-04-28T20:57:04.988Z,99.99
2023-04-28T20:59:33.884Z,99.99
2023-04-28T21:02:01.859Z,99.99
2023-04-28T21:04:31.020Z,99.99
2023-04-28T21:06:59.371Z,99.99
2023-04-28T21:09:27.426Z,99.99
2023-04-28T21:11:56.241Z,99.99
2023-04-28T21:14:25.640Z,99.99
2023-04-28T21:16:54.055Z,99.99
2023-04-28T21:19:22.622Z,99.99
2023-04-28T21:21:51.448Z,99.99
2023-04-28T21:24:19.357Z,99.99
2023-04-28T21:26:48.554Z,99.99
2023-04-28T21:29:18.391Z,99.99
2023-04-28T21:31:48.943Z,99.99
2023-04-28T21:34:16.766Z,99.99
2023-04-28T21:36:45.811Z,99.99
2023-04-28T21:39:14.679Z,99.99
2023-04-28T21:41:42.847Z,99.99
2023-04-28T21:44:11.447Z,99.99
2023-04-28T21:46:39.844Z,99.99
2023-04-28T21:49:09.840Z,99.99
2023-04-28T21:51:38.047Z,99.99
2023-04-28T21:54:08.722Z,99.99
2023-04-28T21:56:36.938Z,99.99
2023-04-28T21:59:04.973Z,99.99
2023-04-28T22:01:34.063Z,99.99
2023-04-28T22:04:02.384Z,99.99
2023-04-28T22:06:32.477Z,99.99
2023-04-28T22:09:01.824Z,99.99
2023-04-28T22:11:29.972Z,99.99
2023-04-28T22:13:58.968Z,99.99
2023-04-28T22:16:26.970Z,99.99
2023-04-28T22:18:55.810Z,99.99
2023-04-28T22:21:23.732Z,99.99
2023-04-28T22:23:53.617Z,99.99
2023-04-28T22:26:30.382Z,99.99
2023-04-28T22:28:58.416Z,99.99
2023-04-28T22:31:26.952Z,99.99
2023-04-28T22:33:54.970Z,99.99
2023-04-28T22:36:22.873Z,99.99
2023-04-28T22:38:51.934Z,99.99
2023-04-28T22:41:21.361Z,99.99
2023-04-28T22:43:49.567Z,99.99
2023-04-28T22:46:17.994Z,99.99
2023-04-28T22:48:46.049Z,99.99
2023-04-28T22:51:16.093Z,99.99
2023-04-28T22:53:44.232Z,99.99
2023-04-28T22:56:12.608Z,99.99
2023-04-28T22:58:42.045Z,99.99
2023-04-28T23:01:10.727Z,99.99
2023-04-28T23:03:39.376Z,99.99
2023-04-28T23:06:07.430Z,99.99
2023-04-28T23:08:36.644Z,99.74
2023-04-28T23:11:06.712Z,99.47
2023-04-28T23:13:35.355Z,99.23
2023-04-28T23:16:05.219Z,99.15
2023-04-28T23:18:34.607Z,98.51
2023-04-28T23:21:03.087Z,98.89
2023-04-28T23:23:31.501Z,99.02
2023-04-28T23:25:59.567Z,99.05
2023-04-28T23:28:28.134Z,99.10
2023-04-28T23:30:56.128Z,99.01
2023-04-28T23:33:25.541Z,99.11
2023-04-28T23:35:54.871Z,99.11
2023-04-28T23:38:26.376Z,98.98
2023-04-28T23:40:55.370Z,99.15
2023-04-28T23:43:23.498Z,99.31
2023-04-28T23:45:51.542Z,99.10
2023-04-28T23:48:20.591Z,99.32
2023-04-28T23:50:50.140Z,99.11
2023-04-28T23:53:19.047Z,99.45
2023-04-28T23:55:46.957Z,99.36
2023-04-28T23:58:15.938Z,99.46
